Time;durP1;ratioP1;P1;durP2;ratioP2;P2;SDS_P1;SDS_P2;PMS_P1;PMS_P2;Temp;Humidity;BMP_temperature;BMP_pressure;BME280_temperature;BME280_humidity;BME280_pressure;Samples;Min_cycle;Max_cycle;Signal;HPM_P1;HPM_P2
2023/08/17 00:01:52;;;;;;;10.52;5.75;;;;;;;;;;5030038;28;20036;-84
2023/08/17 00:04:18;;;;;;;14.52;6.07;;;;;;;;;;5013570;28;20451;-84
2023/08/17 00:06:43;;;;;;;14.73;6.45;;;;;;;;;;5031382;28;20056;-84
2023/08/17 00:09:09;;;;;;;9.95;5.68;;;;;;;;;;5030020;28;20497;-84
2023/08/17 00:11:35;;;;;;;13.13;5.70;;;;;;;;;;5013645;28;20037;-84
2023/08/17 00:14:00;;;;;;;11.50;6.13;;;;;;;;;;5031135;28;20033;-84
2023/08/17 00:16:26;;;;;;;11.55;5.95;;;;;;;;;;5029898;28;20405;-83
2023/08/17 00:18:51;;;;;;;11.88;5.90;;;;;;;;;;5031307;28;20052;-83
2023/08/17 00:21:17;;;;;;;12.35;6.00;;;;;;;;;;5013170;28;20091;-83
2023/08/17 00:23:43;;;;;;;13.73;5.60;;;;;;;;;;5031152;28;20040;-83
2023/08/17 00:26:08;;;;;;;10.60;5.55;;;;;;;;;;5029658;28;20103;-84
2023/08/17 00:28:34;;;;;;;12.60;6.00;;;;;;;;;;5030206;28;20400;-84
2023/08/17 00:30:59;;;;;;;11.45;5.63;;;;;;;;;;5033556;28;20400;-83
2023/08/17 00:33:25;;;;;;;7.80;5.38;;;;;;;;;;5001096;28;20595;-82
2023/08/17 00:35:50;;;;;;;11.25;5.70;;;;;;;;;;5017274;28;20060;-84
2023/08/17 00:38:17;;;;;;;15.15;5.93;;;;;;;;;;5017763;28;20028;-84
2023/08/17 00:40:43;;;;;;;10.57;6.00;;;;;;;;;;5033698;28;20445;-84
2023/08/17 00:43:08;;;;;;;10.27;5.55;;;;;;;;;;5017292;28;20279;-83
2023/08/17 00:45:34;;;;;;;14.02;5.53;;;;;;;;;;5033556;28;20116;-84
2023/08/17 00:48:00;;;;;;;13.38;5.70;;;;;;;;;;5033775;28;20029;-84
2023/08/17 00:50:25;;;;;;;14.70;5.32;;;;;;;;;;5033747;28;20465;-84
2023/08/17 00:52:51;;;;;;;13.55;4.90;;;;;;;;;;5033496;28;20430;-83
2023/08/17 00:55:17;;;;;;;11.50;5.00;;;;;;;;;;5033654;28;20040;-83
2023/08/17 00:57:42;;;;;;;9.80;5.60;;;;;;;;;;5033836;28;20021;-84
2023/08/17 01:00:08;;;;;;;11.10;5.85;;;;;;;;;;5050314;28;20041;-84
2023/08/17 01:02:34;;;;;;;13.10;5.30;;;;;;;;;;5035081;28;20076;-83
2023/08/17 01:05:00;;;;;;;9.35;5.90;;;;;;;;;;5034852;28;20052;-84
2023/08/17 01:07:26;;;;;;;13.35;5.00;;;;;;;;;;5033379;28;20030;-84
2023/08/17 01:09:51;;;;;;;10.55;5.00;;;;;;;;;;5000890;28;20447;-83
2023/08/17 01:12:17;;;;;;;15.00;5.50;;;;;;;;;;5016904;28;20401;-84
2023/08/17 01:14:46;;;;;;;10.50;5.07;;;;;;;;;;5050140;28;20508;-84
2023/08/17 01:17:44;;;;;;;8.27;4.88;;;;;;;;;;5033298;28;20018;-84
2023/08/17 01:20:12;;;;;;;8.00;5.22;;;;;;;;;;5010902;28;20045;-84
2023/08/17 01:22:38;;;;;;;10.40;4.88;;;;;;;;;;5034543;28;20416;-84
2023/08/17 01:25:04;;;;;;;8.95;5.13;;;;;;;;;;5016600;28;20040;-84
2023/08/17 01:27:43;;;;;;;11.95;5.65;;;;;;;;;;5034232;28;20032;-84
2023/08/17 01:30:09;;;;;;;13.00;5.72;;;;;;;;;;5033134;28;20202;-84
2023/08/17 01:32:37;;;;;;;13.15;5.50;;;;;;;;;;5034021;28;20127;-84
2023/08/17 01:35:23;;;;;;;13.07;5.80;;;;;;;;;;5034234;28;20408;-84
2023/08/17 01:37:49;;;;;;;10.27;6.57;;;;;;;;;;5058932;28;20159;-84
2023/08/17 01:40:15;;;;;;;12.38;5.55;;;;;;;;;;5016314;28;20029;-84
2023/08/17 01:42:41;;;;;;;13.05;6.25;;;;;;;;;;5032125;28;20044;-84
2023/08/17 01:45:06;;;;;;;11.65;5.63;;;;;;;;;;5016310;28;20033;-84
2023/08/17 01:47:32;;;;;;;12.27;6.05;;;;;;;;;;5016196;28;20065;-84
2023/08/17 01:49:59;;;;;;;16.52;6.03;;;;;;;;;;5016298;28;20044;-84
2023/08/17 01:52:28;;;;;;;14.32;6.28;;;;;;;;;;5032702;28;20037;-84
2023/08/17 01:54:54;;;;;;;11.45;6.38;;;;;;;;;;5016333;28;20059;-85
2023/08/17 01:57:19;;;;;;;12.30;6.57;;;;;;;;;;5032159;28;20061;-85
2023/08/17 01:59:45;;;;;;;14.55;6.90;;;;;;;;;;5015908;28;20067;-84
2023/08/17 02:02:11;;;;;;;9.50;5.63;;;;;;;;;;5015715;28;20036;-85
2023/08/17 02:04:37;;;;;;;14.77;6.32;;;;;;;;;;5032077;28;20447;-84
2023/08/17 02:07:02;;;;;;;11.98;6.50;;;;;;;;;;5033238;28;20029;-84
2023/08/17 02:09:28;;;;;;;13.20;6.10;;;;;;;;;;5015608;28;20112;-84
2023/08/17 02:11:53;;;;;;;15.13;6.07;;;;;;;;;;5031768;28;20042;-84
2023/08/17 02:14:19;;;;;;;13.18;6.22;;;;;;;;;;5016209;28;20029;-83
2023/08/17 02:16:44;;;;;;;14.48;6.10;;;;;;;;;;5032138;28;20087;-84
2023/08/17 02:19:11;;;;;;;9.40;5.90;;;;;;;;;;5033330;28;20022;-84
2023/08/17 02:21:36;;;;;;;11.90;5.88;;;;;;;;;;5015911;28;20557;-84
2023/08/17 02:24:02;;;;;;;12.02;6.03;;;;;;;;;;5032180;28;20088;-84
2023/08/17 02:26:29;;;;;;;12.70;6.10;;;;;;;;;;5033411;28;20470;-84
2023/08/17 02:28:55;;;;;;;13.52;5.95;;;;;;;;;;5033312;28;20095;-84
2023/08/17 02:31:23;;;;;;;11.80;5.68;;;;;;;;;;5015691;28;20087;-84
2023/08/17 02:33:49;;;;;;;16.58;5.97;;;;;;;;;;5031744;28;20128;-85
2023/08/17 02:36:14;;;;;;;12.10;5.70;;;;;;;;;;5032007;28;20044;-84
2023/08/17 02:38:40;;;;;;;10.10;5.70;;;;;;;;;;5031739;28;20022;-84
2023/08/17 02:41:05;;;;;;;14.80;6.43;;;;;;;;;;5015137;28;20029;-84
2023/08/17 02:43:31;;;;;;;9.45;5.53;;;;;;;;;;5014958;28;20446;-84
2023/08/17 02:45:56;;;;;;;13.82;5.60;;;;;;;;;;5015064;28;20447;-84
2023/08/17 02:48:22;;;;;;;11.75;5.85;;;;;;;;;;5031172;28;20025;-84
2023/08/17 02:50:47;;;;;;;11.10;5.90;;;;;;;;;;5031509;28;20484;-84
2023/08/17 02:53:13;;;;;;;10.57;5.10;;;;;;;;;;5013844;28;20469;-84
2023/08/17 02:55:39;;;;;;;8.88;5.47;;;;;;;;;;5031395;28;20040;-84
2023/08/17 02:58:04;;;;;;;13.88;5.57;;;;;;;;;;5032496;28;20026;-84
2023/08/17 03:00:29;;;;;;;9.25;5.50;;;;;;;;;;5031725;28;20538;-84
2023/08/17 03:02:56;;;;;;;9.05;5.38;;;;;;;;;;4999077;28;20080;-85
2023/08/17 03:05:22;;;;;;;10.10;5.55;;;;;;;;;;5015055;28;20045;-84
2023/08/17 03:07:47;;;;;;;10.05;5.43;;;;;;;;;;5031827;28;20476;-85
2023/08/17 03:10:13;;;;;;;9.55;4.82;;;;;;;;;;5032801;28;20038;-85
2023/08/17 03:12:38;;;;;;;10.20;5.18;;;;;;;;;;5032293;28;20029;-84
2023/08/17 03:15:05;;;;;;;12.85;5.30;;;;;;;;;;5014896;28;20056;-84
2023/08/17 03:17:31;;;;;;;13.05;5.38;;;;;;;;;;5031113;28;20068;-84
2023/08/17 03:19:59;;;;;;;11.98;5.10;;;;;;;;;;5014344;28;20085;-84
2023/08/17 03:22:24;;;;;;;9.15;5.00;;;;;;;;;;5014773;28;20518;-84
2023/08/17 03:24:50;;;;;;;9.68;5.53;;;;;;;;;;5014187;28;20125;-84
2023/08/17 03:27:15;;;;;;;11.35;5.40;;;;;;;;;;5030999;28;20527;-84
2023/08/17 03:29:41;;;;;;;8.32;5.13;;;;;;;;;;5030646;28;20112;-84
2023/08/17 03:32:07;;;;;;;9.02;5.70;;;;;;;;;;5030410;28;20028;-84
2023/08/17 03:34:32;;;;;;;8.27;5.00;;;;;;;;;;5031691;28;20037;-84
2023/08/17 03:37:00;;;;;;;10.15;5.55;;;;;;;;;;5014413;28;20029;-84
2023/08/17 03:39:25;;;;;;;8.45;5.03;;;;;;;;;;5030709;28;20033;-84
2023/08/17 03:41:51;;;;;;;8.52;5.80;;;;;;;;;;5013891;28;20498;-84
2023/08/17 03:44:17;;;;;;;8.30;5.25;;;;;;;;;;5030476;28;20500;-83
2023/08/17 03:46:42;;;;;;;10.27;5.50;;;;;;;;;;5013984;28;20439;-84
2023/08/17 03:49:08;;;;;;;8.10;5.63;;;;;;;;;;5031432;28;20099;-85
2023/08/17 03:51:35;;;;;;;6.70;5.15;;;;;;;;;;5014076;28;20025;-85
2023/08/17 03:54:01;;;;;;;9.60;5.35;;;;;;;;;;5013905;28;20115;-84
2023/08/17 03:56:26;;;;;;;7.90;5.03;;;;;;;;;;5014304;28;20115;-84
2023/08/17 03:58:52;;;;;;;13.60;5.72;;;;;;;;;;5030386;28;20072;-83
2023/08/17 04:01:18;;;;;;;10.98;5.18;;;;;;;;;;5013622;28;20454;-84
2023/08/17 04:03:43;;;;;;;7.85;5.38;;;;;;;;;;5030104;28;20045;-84
2023/08/17 04:06:10;;;;;;;7.15;4.85;;;;;;;;;;5014022;28;20091;-84
2023/08/17 04:08:36;;;;;;;10.07;5.10;;;;;;;;;;5031517;28;20042;-84
2023/08/17 04:11:02;;;;;;;8.98;5.32;;;;;;;;;;5031263;28;20120;-84
2023/08/17 04:13:27;;;;;;;7.70;5.25;;;;;;;;;;5030070;28;20140;-84
2023/08/17 04:15:53;;;;;;;8.52;5.22;;;;;;;;;;5029825;28;20420;-84
2023/08/17 04:18:18;;;;;;;8.75;5.22;;;;;;;;;;5013528;28;20033;-83
2023/08/17 04:20:44;;;;;;;11.68;5.15;;;;;;;;;;5013674;28;20409;-83
2023/08/17 04:23:13;;;;;;;9.85;5.45;;;;;;;;;;5029924;28;20069;-84
2023/08/17 04:25:39;;;;;;;15.35;6.93;;;;;;;;;;5029794;28;20068;-83
2023/08/17 04:28:04;;;;;;;8.25;5.68;;;;;;;;;;4997224;28;20482;-83
2023/08/17 04:30:31;;;;;;;13.30;5.30;;;;;;;;;;5029732;28;20538;-84
2023/08/17 04:33:00;;;;;;;11.25;5.50;;;;;;;;;;5013899;28;20412;-85
2023/08/17 04:35:25;;;;;;;10.10;5.68;;;;;;;;;;5013318;28;20026;-83
2023/08/17 04:37:51;;;;;;;8.02;5.72;;;;;;;;;;5013515;28;20041;-83
2023/08/17 04:40:17;;;;;;;10.77;5.40;;;;;;;;;;5029864;28;20030;-83
2023/08/17 04:42:42;;;;;;;13.48;5.22;;;;;;;;;;5013511;28;20041;-84
2023/08/17 04:45:08;;;;;;;12.90;5.43;;;;;;;;;;5029773;28;20514;-83
2023/08/17 04:47:38;;;;;;;11.88;5.13;;;;;;;;;;5029440;28;20041;-83
2023/08/17 04:50:04;;;;;;;12.40;4.90;;;;;;;;;;5013394;28;20135;-83
2023/08/17 04:52:30;;;;;;;15.18;5.55;;;;;;;;;;5029457;28;20080;-84
2023/08/17 04:54:55;;;;;;;12.07;5.20;;;;;;;;;;5013532;28;20028;-83
2023/08/17 04:57:21;;;;;;;11.02;5.03;;;;;;;;;;5013518;28;20033;-84
2023/08/17 04:59:46;;;;;;;11.93;4.65;;;;;;;;;;4997475;28;20017;-84
2023/08/17 05:02:13;;;;;;;13.43;4.60;;;;;;;;;;5029545;28;20033;-83
2023/08/17 05:04:39;;;;;;;11.05;4.95;;;;;;;;;;5030869;28;20041;-83
2023/08/17 05:07:05;;;;;;;18.67;5.60;;;;;;;;;;5029623;28;20064;-83
2023/08/17 05:09:31;;;;;;;14.43;5.03;;;;;;;;;;5013223;28;20033;-84
2023/08/17 05:11:57;;;;;;;13.10;5.38;;;;;;;;;;5013366;28;20048;-85
2023/08/17 05:14:23;;;;;;;15.95;5.95;;;;;;;;;;5012982;28;20116;-85
2023/08/17 05:16:48;;;;;;;14.80;5.93;;;;;;;;;;5032356;28;20088;-84
2023/08/17 05:19:14;;;;;;;17.95;5.40;;;;;;;;;;5016532;28;20021;-84
2023/08/17 05:21:39;;;;;;;16.77;5.45;;;;;;;;;;5032864;28;20061;-85
2023/08/17 05:24:05;;;;;;;18.33;5.10;;;;;;;;;;5034942;28;20041;-84
2023/08/17 05:26:30;;;;;;;15.13;5.45;;;;;;;;;;5016506;28;20037;-85
2023/08/17 05:28:56;;;;;;;16.17;5.15;;;;;;;;;;5016549;28;20124;-84
2023/08/17 05:31:23;;;;;;;17.80;5.55;;;;;;;;;;5016705;28;20037;-83
2023/08/17 05:33:51;;;;;;;18.67;5.47;;;;;;;;;;5016448;28;20381;-83
2023/08/17 05:36:17;;;;;;;13.00;5.30;;;;;;;;;;5016576;28;20505;-84
2023/08/17 05:38:43;;;;;;;14.02;5.70;;;;;;;;;;5000619;28;20107;-83
2023/08/17 05:41:09;;;;;;;21.85;6.47;;;;;;;;;;5016356;28;20038;-83
2023/08/17 05:43:34;;;;;;;16.75;5.72;;;;;;;;;;5016287;28;20057;-83
2023/08/17 05:46:00;;;;;;;11.27;5.30;;;;;;;;;;5016307;28;20037;-84
2023/08/17 05:48:25;;;;;;;14.77;5.43;;;;;;;;;;5032607;28;20036;-84
2023/08/17 05:50:51;;;;;;;11.20;5.20;;;;;;;;;;5032726;28;20037;-83
2023/08/17 05:53:16;;;;;;;22.77;6.32;;;;;;;;;;4999346;28;20029;-84
2023/08/17 05:55:42;;;;;;;11.93;5.60;;;;;;;;;;5032432;28;20555;-83
2023/08/17 05:58:07;;;;;;;14.05;5.55;;;;;;;;;;5032424;28;20528;-83
2023/08/17 06:00:33;;;;;;;13.88;5.70;;;;;;;;;;5015880;28;20033;-84
2023/08/17 06:03:01;;;;;;;15.50;5.55;;;;;;;;;;5033662;28;20434;-83
2023/08/17 06:05:27;;;;;;;14.07;5.35;;;;;;;;;;5015963;28;20037;-83
2023/08/17 06:07:52;;;;;;;14.60;5.30;;;;;;;;;;5033214;28;20079;-84
2023/08/17 06:10:18;;;;;;;16.20;5.22;;;;;;;;;;5032400;28;20459;-83
2023/08/17 06:12:44;;;;;;;18.65;5.25;;;;;;;;;;5015568;28;20481;-84
2023/08/17 06:15:09;;;;;;;16.00;5.00;;;;;;;;;;5033130;28;20088;-84
2023/08/17 06:17:35;;;;;;;11.70;5.35;;;;;;;;;;5033139;28;20025;-84
2023/08/17 06:20:02;;;;;;;15.77;5.10;;;;;;;;;;5015343;28;20054;-84
2023/08/17 06:22:28;;;;;;;9.02;3.85;;;;;;;;;;5032091;28;20385;-84
2023/08/17 06:24:53;;;;;;;13.73;3.88;;;;;;;;;;5032036;28;20033;-84
2023/08/17 06:27:19;;;;;;;10.45;4.07;;;;;;;;;;5033323;28;20163;-85
2023/08/17 06:29:44;;;;;;;13.20;4.65;;;;;;;;;;5015273;28;20038;-85
2023/08/17 06:32:10;;;;;;;14.45;4.30;;;;;;;;;;5031676;28;20033;-85
2023/08/17 06:34:35;;;;;;;8.88;4.15;;;;;;;;;;5031625;28;20035;-84
2023/08/17 06:37:02;;;;;;;14.93;4.70;;;;;;;;;;5031432;28;20044;-85
2023/08/17 06:39:27;;;;;;;9.35;4.32;;;;;;;;;;5031510;28;20032;-85
2023/08/17 06:41:53;;;;;;;15.50;5.25;;;;;;;;;;5031677;28;20025;-85
2023/08/17 06:44:19;;;;;;;16.77;6.10;;;;;;;;;;5033094;28;20508;-84
2023/08/17 06:46:44;;;;;;;11.32;5.55;;;;;;;;;;5015124;28;20030;-84
2023/08/17 06:49:10;;;;;;;15.20;5.10;;;;;;;;;;5033067;28;20041;-83
2023/08/17 06:51:36;;;;;;;16.77;4.82;;;;;;;;;;5031223;28;20484;-82
2023/08/17 06:54:01;;;;;;;14.38;5.38;;;;;;;;;;5031280;28;20048;-84
2023/08/17 06:56:27;;;;;;;12.68;4.40;;;;;;;;;;5032482;28;20037;-83
2023/08/17 06:58:52;;;;;;;13.35;4.90;;;;;;;;;;5031437;28;20036;-83
2023/08/17 07:01:18;;;;;;;13.73;4.68;;;;;;;;;;5032260;28;20075;-83
2023/08/17 07:03:44;;;;;;;11.88;4.55;;;;;;;;;;5031265;28;20509;-84
2023/08/17 07:06:09;;;;;;;14.60;4.78;;;;;;;;;;5031542;28;20403;-84
2023/08/17 07:08:35;;;;;;;14.05;4.03;;;;;;;;;;5014699;28;20055;-83
2023/08/17 07:11:00;;;;;;;18.15;3.95;;;;;;;;;;5032226;28;20053;-83
2023/08/17 07:13:26;;;;;;;18.10;3.63;;;;;;;;;;5014349;28;20034;-84
2023/08/17 07:15:51;;;;;;;9.30;3.40;;;;;;;;;;5031720;28;20531;-84
2023/08/17 07:18:17;;;;;;;9.15;3.22;;;;;;;;;;5030590;28;20053;-84
2023/08/17 07:20:42;;;;;;;9.93;3.47;;;;;;;;;;5031854;28;20057;-84
2023/08/17 07:23:08;;;;;;;9.63;3.80;;;;;;;;;;5032387;28;20049;-84
2023/08/17 07:25:33;;;;;;;13.27;3.47;;;;;;;;;;5014967;28;20038;-84
2023/08/17 07:28:00;;;;;;;7.70;3.00;;;;;;;;;;5014300;28;20065;-84
2023/08/17 07:30:26;;;;;;;8.63;2.90;;;;;;;;;;5032018;28;20496;-85
2023/08/17 07:32:51;;;;;;;4.47;2.30;;;;;;;;;;5014304;28;20030;-84
2023/08/17 07:35:17;;;;;;;5.32;2.22;;;;;;;;;;5014360;28;20405;-85
2023/08/17 07:37:42;;;;;;;5.55;2.53;;;;;;;;;;5030829;28;20155;-84
2023/08/17 07:40:08;;;;;;;5.68;2.65;;;;;;;;;;5030308;28;20029;-84
2023/08/17 07:42:33;;;;;;;3.97;2.30;;;;;;;;;;5032087;28;20607;-84
2023/08/17 07:44:59;;;;;;;7.25;2.60;;;;;;;;;;5030708;28;20128;-84
2023/08/17 07:47:24;;;;;;;4.57;2.15;;;;;;;;;;5014267;28;20030;-85
2023/08/17 07:49:50;;;;;;;11.27;2.25;;;;;;;;;;5030458;28;20428;-85
2023/08/17 07:52:16;;;;;;;5.55;2.40;;;;;;;;;;5030768;28;20029;-85
2023/08/17 07:54:41;;;;;;;6.03;2.30;;;;;;;;;;5031567;28;20124;-85
2023/08/17 07:57:06;;;;;;;7.88;2.88;;;;;;;;;;5046931;28;20159;-83
2023/08/17 07:59:32;;;;;;;4.03;2.20;;;;;;;;;;5030290;28;20060;-84
2023/08/17 08:01:57;;;;;;;6.13;3.35;;;;;;;;;;5030343;28;20029;-84
2023/08/17 08:04:23;;;;;;;3.70;2.30;;;;;;;;;;5031768;28;20041;-83
2023/08/17 08:06:48;;;;;;;4.10;2.20;;;;;;;;;;5030014;28;20116;-84
2023/08/17 08:09:14;;;;;;;5.05;2.45;;;;;;;;;;5031533;28;20076;-84
2023/08/17 08:11:39;;;;;;;4.10;2.13;;;;;;;;;;5030278;28;20036;-84
2023/08/17 08:14:05;;;;;;;6.70;2.58;;;;;;;;;;5031194;28;20034;-86
2023/08/17 08:16:30;;;;;;;7.10;2.55;;;;;;;;;;5013916;28;20026;-84
2023/08/17 08:18:56;;;;;;;5.30;2.30;;;;;;;;;;5013558;28;20404;-85
2023/08/17 08:21:21;;;;;;;4.45;2.13;;;;;;;;;;5030775;28;20054;-84
2023/08/17 08:23:47;;;;;;;3.33;2.20;;;;;;;;;;5030949;28;20036;-84
2023/08/17 08:26:12;;;;;;;3.25;1.75;;;;;;;;;;5029919;28;20037;-84
2023/08/17 08:28:39;;;;;;;4.70;3.42;;;;;;;;;;5030169;28;20451;-84
2023/08/17 08:31:04;;;;;;;3.05;1.90;;;;;;;;;;5031119;28;20026;-84
2023/08/17 08:33:30;;;;;;;4.32;1.90;;;;;;;;;;5013388;28;20094;-84
2023/08/17 08:35:55;;;;;;;5.28;2.15;;;;;;;;;;5031137;28;20112;-84
2023/08/17 08:38:20;;;;;;;3.63;1.90;;;;;;;;;;5030122;28;20083;-85
2023/08/17 08:40:46;;;;;;;6.05;2.50;;;;;;;;;;5031591;28;20056;-84
2023/08/17 08:43:12;;;;;;;6.78;2.03;;;;;;;;;;5030083;28;20034;-85
2023/08/17 08:45:38;;;;;;;3.55;1.73;;;;;;;;;;5030300;28;20159;-84
2023/08/17 08:48:04;;;;;;;4.75;1.85;;;;;;;;;;5031060;28;20543;-84
2023/08/17 08:50:31;;;;;;;4.15;1.98;;;;;;;;;;5013580;28;20088;-84
2023/08/17 08:53:02;;;;;;;3.35;1.90;;;;;;;;;;5033624;28;20040;-84
2023/08/17 08:55:29;;;;;;;7.60;2.10;;;;;;;;;;5017445;28;20030;-84
2023/08/17 08:57:54;;;;;;;3.10;2.20;;;;;;;;;;5033339;28;20068;-84
2023/08/17 09:00:20;;;;;;;3.20;1.70;;;;;;;;;;5033817;28;20452;-84
2023/08/17 09:02:46;;;;;;;3.05;1.88;;;;;;;;;;5033535;28;20037;-84
2023/08/17 09:05:11;;;;;;;3.00;2.03;;;;;;;;;;5017019;28;20400;-84
2023/08/17 09:07:37;;;;;;;3.97;2.00;;;;;;;;;;5033407;28;20025;-85
2023/08/17 09:10:03;;;;;;;4.55;2.03;;;;;;;;;;5033543;28;20037;-85
2023/08/17 09:12:29;;;;;;;4.32;2.50;;;;;;;;;;5033238;28;20116;-85
2023/08/17 09:14:55;;;;;;;8.68;2.05;;;;;;;;;;5033251;28;20378;-85
2023/08/17 09:17:26;;;;;;;5.70;1.98;;;;;;;;;;5034964;28;20024;-85
2023/08/17 09:19:52;;;;;;;3.00;1.80;;;;;;;;;;5032999;28;20053;-85
2023/08/17 09:22:24;;;;;;;4.45;2.50;;;;;;;;;;5033041;28;20044;-85
2023/08/17 09:24:50;;;;;;;5.00;2.30;;;;;;;;;;5033070;28;20041;-85
2023/08/17 09:27:16;;;;;;;7.85;2.60;;;;;;;;;;5032639;28;20121;-85
2023/08/17 09:29:42;;;;;;;3.72;1.88;;;;;;;;;;5033149;28;20125;-83
2023/08/17 09:32:09;;;;;;;5.13;1.85;;;;;;;;;;5035597;28;20131;-85
2023/08/17 09:34:34;;;;;;;3.47;1.67;;;;;;;;;;5034141;28;20496;-85
2023/08/17 09:37:04;;;;;;;2.97;1.77;;;;;;;;;;5034836;28;20036;-84
2023/08/17 09:39:30;;;;;;;2.78;1.90;;;;;;;;;;5034059;28;20037;-85
2023/08/17 09:41:55;;;;;;;3.75;1.60;;;;;;;;;;5016269;28;20553;-85
2023/08/17 09:44:21;;;;;;;3.42;1.80;;;;;;;;;;5033602;28;20485;-85
2023/08/17 09:46:46;;;;;;;3.78;1.60;;;;;;;;;;5015989;28;20146;-85
2023/08/17 09:49:12;;;;;;;4.45;1.60;;;;;;;;;;5032315;28;20500;-85
2023/08/17 09:51:38;;;;;;;2.97;1.58;;;;;;;;;;5032736;28;20037;-85
2023/08/17 09:54:04;;;;;;;5.95;2.00;;;;;;;;;;5033616;28;20492;-85
2023/08/17 09:56:29;;;;;;;3.20;1.77;;;;;;;;;;5032369;28;20488;-85
2023/08/17 09:58:55;;;;;;;4.60;2.45;;;;;;;;;;5032303;28;20038;-85
2023/08/17 10:01:21;;;;;;;4.75;1.80;;;;;;;;;;5033687;28;20028;-85
2023/08/17 10:03:49;;;;;;;3.45;1.48;;;;;;;;;;5032864;28;20041;-84
2023/08/17 10:06:16;;;;;;;13.68;2.05;;;;;;;;;;5016416;28;20142;-85
2023/08/17 10:08:43;;;;;;;2.92;1.95;;;;;;;;;;5033079;28;20045;-85
2023/08/17 10:11:09;;;;;;;3.67;1.65;;;;;;;;;;5032397;28;20373;-86
2023/08/17 10:13:35;;;;;;;3.05;1.65;;;;;;;;;;5032300;28;20042;-85
2023/08/17 10:16:09;;;;;;;4.97;1.90;;;;;;;;;;5032449;28;20040;-85
2023/08/17 10:18:41;;;;;;;4.78;1.70;;;;;;;;;;5015877;28;20400;-84
2023/08/17 10:21:07;;;;;;;3.05;1.50;;;;;;;;;;5032270;28;20587;-84
2023/08/17 10:23:32;;;;;;;4.25;1.70;;;;;;;;;;5015267;28;20033;-85
2023/08/17 10:25:59;;;;;;;4.90;1.67;;;;;;;;;;5015013;28;20519;-84
2023/08/17 10:28:24;;;;;;;4.28;1.58;;;;;;;;;;5031689;28;20032;-85
2023/08/17 10:30:50;;;;;;;4.88;1.70;;;;;;;;;;5033000;28;20037;-85
2023/08/17 10:33:16;;;;;;;2.97;1.60;;;;;;;;;;5031697;28;20042;-86
2023/08/17 10:35:42;;;;;;;2.72;1.45;;;;;;;;;;5032786;28;20029;-86
2023/08/17 10:38:07;;;;;;;3.63;1.33;;;;;;;;;;5031861;28;20045;-85
2023/08/17 10:40:37;;;;;;;2.67;1.52;;;;;;;;;;5031772;28;20486;-84
2023/08/17 10:43:02;;;;;;;4.88;1.98;;;;;;;;;;5015449;28;20065;-85
2023/08/17 10:45:29;;;;;;;2.58;1.60;;;;;;;;;;5032924;28;20129;-85
2023/08/17 10:48:20;;;;;;;3.45;1.73;;;;;;;;;;5015292;28;20025;-84
2023/08/17 10:50:58;;;;;;;3.65;1.60;;;;;;;;;;5032495;28;20029;-85
2023/08/17 10:53:23;;;;;;;3.00;1.30;;;;;;;;;;5032505;28;20501;-85
2023/08/17 10:55:51;;;;;;;4.22;1.50;;;;;;;;;;5015131;28;20041;-84
2023/08/17 10:58:16;;;;;;;2.63;1.33;;;;;;;;;;5031170;28;20034;-84
2023/08/17 11:00:42;;;;;;;3.90;1.65;;;;;;;;;;5031402;28;20489;-84
2023/08/17 11:03:11;;;;;;;2.35;1.42;;;;;;;;;;5031644;28;20129;-85
2023/08/17 11:05:40;;;;;;;5.18;1.50;;;;;;;;;;5015157;28;20037;-85
2023/08/17 11:08:06;;;;;;;3.55;1.38;;;;;;;;;;5031044;28;20044;-85
2023/08/17 11:10:31;;;;;;;3.17;1.60;;;;;;;;;;5031062;28;20075;-84
2023/08/17 11:13:01;;;;;;;3.33;1.45;;;;;;;;;;5030979;28;20045;-85
2023/08/17 11:15:35;;;;;;;3.20;1.25;;;;;;;;;;5031049;28;20392;-85
2023/08/17 11:18:00;;;;;;;;;;;;;;;;;;5015505;28;20029;-84
2023/08/17 11:20:26;;;;;;;3.60;1.50;;;;;;;;;;5032679;28;20277;-85
2023/08/17 11:22:51;;;;;;;3.35;1.58;;;;;;;;;;5030902;28;20033;-85
2023/08/17 11:25:17;;;;;;;2.33;1.23;;;;;;;;;;5032306;28;20036;-85
2023/08/17 11:27:43;;;;;;;3.00;1.30;;;;;;;;;;5031098;28;20037;-85
2023/08/17 11:30:08;;;;;;;6.03;1.40;;;;;;;;;;5030693;28;20040;-85
2023/08/17 11:32:34;;;;;;;5.85;1.50;;;;;;;;;;5030509;28;20029;-85
2023/08/17 11:34:59;;;;;;;7.78;1.77;;;;;;;;;;5032551;28;20030;-85
2023/08/17 11:37:25;;;;;;;4.13;1.77;;;;;;;;;;5031417;28;20041;-85
2023/08/17 11:39:51;;;;;;;1.90;1.00;;;;;;;;;;5031134;28;20037;-85
2023/08/17 11:42:17;;;;;;;2.70;1.55;;;;;;;;;;5030707;28;20033;-84
2023/08/17 11:44:42;;;;;;;6.53;1.60;;;;;;;;;;5030921;28;20030;-84
2023/08/17 11:47:08;;;;;;;3.22;1.50;;;;;;;;;;5031715;28;20041;-84
2023/08/17 11:49:33;;;;;;;1.95;1.20;;;;;;;;;;5030868;28;20033;-85
2023/08/17 11:52:05;;;;;;;4.95;1.80;;;;;;;;;;5030151;28;20033;-85
2023/08/17 11:54:32;;;;;;;3.13;1.45;;;;;;;;;;5030274;28;20538;-85
2023/08/17 11:56:58;;;;;;;1.63;1.00;;;;;;;;;;5031773;28;20047;-84
2023/08/17 11:59:23;;;;;;;2.67;1.50;;;;;;;;;;5030195;28;20453;-84
2023/08/17 12:01:49;;;;;;;2.15;1.00;;;;;;;;;;4997607;28;20039;-85
2023/08/17 12:04:15;;;;;;;2.22;1.30;;;;;;;;;;5031871;28;20029;-85
2023/08/17 12:06:42;;;;;;;3.67;1.63;;;;;;;;;;5046982;28;20099;-85
2023/08/17 12:09:08;;;;;;;3.42;1.50;;;;;;;;;;5046807;28;20131;-85
2023/08/17 12:11:33;;;;;;;2.20;1.27;;;;;;;;;;5030543;28;20116;-85
2023/08/17 12:13:59;;;;;;;5.07;1.30;;;;;;;;;;4997285;28;20056;-85
2023/08/17 12:16:24;;;;;;;1.95;1.20;;;;;;;;;;5014181;28;20092;-86
2023/08/17 12:18:50;;;;;;;1.25;0.82;;;;;;;;;;5029999;28;20032;-85
2023/08/17 12:21:16;;;;;;;1.98;1.10;;;;;;;;;;5029761;28;20136;-86
2023/08/17 12:23:42;;;;;;;4.25;1.33;;;;;;;;;;5013612;28;20042;-84
2023/08/17 12:26:08;;;;;;;2.20;1.25;;;;;;;;;;5034368;28;20037;-85
2023/08/17 12:28:33;;;;;;;5.13;1.60;;;;;;;;;;5037840;28;20108;-85
2023/08/17 12:30:59;;;;;;;8.32;1.92;;;;;;;;;;5036464;28;20068;-84
2023/08/17 12:33:25;;;;;;;3.53;1.48;;;;;;;;;;5037956;28;20033;-85
2023/08/17 12:35:50;;;;;;;2.47;1.40;;;;;;;;;;5036696;28;20037;-85
2023/08/17 12:38:16;;;;;;;3.08;1.60;;;;;;;;;;5036760;28;20021;-85
2023/08/17 12:40:41;;;;;;;5.20;1.92;;;;;;;;;;5036435;28;20532;-84
2023/08/17 12:43:07;;;;;;;1.77;0.90;;;;;;;;;;5036463;28;20038;-84
2023/08/17 12:45:32;;;;;;;1.83;1.00;;;;;;;;;;5019587;28;20041;-84
2023/08/17 12:47:59;;;;;;;2.83;1.27;;;;;;;;;;5019866;28;20060;-85
2023/08/17 12:50:25;;;;;;;5.32;1.50;;;;;;;;;;5036349;28;20041;-85
2023/08/17 12:52:53;;;;;;;3.35;1.40;;;;;;;;;;5036193;28;20037;-84
2023/08/17 12:55:19;;;;;;;3.20;1.10;;;;;;;;;;5037478;28;20037;-85
2023/08/17 12:57:44;;;;;;;3.40;1.25;;;;;;;;;;5036323;28;20113;-84
2023/08/17 13:00:10;;;;;;;6.00;1.40;;;;;;;;;;5036032;28;20086;-84
2023/08/17 13:02:35;;;;;;;3.28;1.48;;;;;;;;;;5036340;28;20025;-84
2023/08/17 13:05:01;;;;;;;3.03;1.42;;;;;;;;;;5036296;28;20033;-85
2023/08/17 13:07:27;;;;;;;4.10;1.50;;;;;;;;;;5037675;28;20060;-85
2023/08/17 13:09:52;;;;;;;2.08;1.08;;;;;;;;;;5035905;28;20034;-85
2023/08/17 13:12:18;;;;;;;2.88;1.40;;;;;;;;;;5036048;28;20086;-85
2023/08/17 13:14:43;;;;;;;2.80;1.30;;;;;;;;;;5036182;28;20037;-85
2023/08/17 13:17:09;;;;;;;2.10;1.40;;;;;;;;;;5037382;28;20053;-85
2023/08/17 13:19:34;;;;;;;3.40;1.60;;;;;;;;;;5019118;28;20136;-85
2023/08/17 13:22:02;;;;;;;3.78;1.67;;;;;;;;;;5035849;28;20236;-85
2023/08/17 13:24:28;;;;;;;4.32;1.40;;;;;;;;;;5019723;28;20650;-85
2023/08/17 13:26:54;;;;;;;3.75;1.80;;;;;;;;;;5019337;28;20119;-85
2023/08/17 13:29:20;;;;;;;6.32;1.73;;;;;;;;;;5035841;28;20136;-85
2023/08/17 13:31:46;;;;;;;5.00;1.80;;;;;;;;;;5036040;28;20112;-85
2023/08/17 13:34:12;;;;;;;5.72;1.58;;;;;;;;;;5037192;28;20079;-85
2023/08/17 13:36:37;;;;;;;1.80;1.02;;;;;;;;;;5036027;28;20095;-84
2023/08/17 13:39:03;;;;;;;1.63;1.00;;;;;;;;;;5016415;28;20038;-85
2023/08/17 13:41:29;;;;;;;3.35;1.60;;;;;;;;;;5034276;28;20033;-85
2023/08/17 13:43:57;;;;;;;3.63;1.40;;;;;;;;;;5016623;28;20033;-85
2023/08/17 13:46:22;;;;;;;3.70;1.50;;;;;;;;;;5034386;28;20091;-86
2023/08/17 13:48:48;;;;;;;2.83;1.60;;;;;;;;;;5033776;28;20037;-86
2023/08/17 13:51:13;;;;;;;5.40;1.60;;;;;;;;;;5034542;28;20087;-86
2023/08/17 13:53:39;;;;;;;3.58;1.83;;;;;;;;;;5033211;28;20041;-86
2023/08/17 13:56:04;;;;;;;6.32;2.30;;;;;;;;;;5034804;28;20018;-85
2023/08/17 13:58:30;;;;;;;4.45;2.08;;;;;;;;;;5033886;28;20116;-85
2023/08/17 14:00:56;;;;;;;3.83;1.60;;;;;;;;;;5032681;28;20053;-85
2023/08/17 14:03:21;;;;;;;2.72;1.48;;;;;;;;;;5016032;28;20488;-85
2023/08/17 14:05:47;;;;;;;3.28;1.60;;;;;;;;;;5032557;28;20481;-85
2023/08/17 14:08:12;;;;;;;3.35;1.98;;;;;;;;;;5032230;28;20044;-86
2023/08/17 14:10:38;;;;;;;2.17;1.00;;;;;;;;;;5032702;28;20033;-86
2023/08/17 14:13:04;;;;;;;3.38;1.63;;;;;;;;;;5016042;28;20389;-85
2023/08/17 14:15:30;;;;;;;5.03;2.00;;;;;;;;;;5016077;28;20026;-85
2023/08/17 14:17:55;;;;;;;4.38;1.27;;;;;;;;;;5033435;28;20040;-85
2023/08/17 14:20:21;;;;;;;3.00;1.88;;;;;;;;;;5033643;28;20424;-86
2023/08/17 14:22:47;;;;;;;5.55;2.00;;;;;;;;;;5032807;28;20033;-85
2023/08/17 14:25:13;;;;;;;5.32;2.10;;;;;;;;;;5015848;28;20025;-85
2023/08/17 14:27:38;;;;;;;5.05;1.90;;;;;;;;;;5031979;28;20389;-85
2023/08/17 14:30:04;;;;;;;3.25;1.40;;;;;;;;;;5032150;28;20029;-86
2023/08/17 14:32:30;;;;;;;3.45;1.52;;;;;;;;;;5032878;28;20037;-85